Time;durP1;ratioP1;P1;durP2;ratioP2;P2;SDS_P1;SDS_P2;PMS_P1;PMS_P2;Temp;Humidity;BMP_temperature;BMP_pressure;BME280_temperature;BME280_humidity;BME280_pressure;Samples;Min_cycle;Max_cycle;Signal;HPM_P1;HPM_P2
2023/04/13 00:02:32;;;;;;;;;;;;;;;26.87;40.29;93320.47;4995604;28;7283;-55
2023/04/13 00:05:44;;;;;;;;;;;;;;;26.88;39.46;93313.66;5011842;28;9069;-55
2023/04/13 00:08:11;;;;;;;;;;;;;;;26.86;39.82;93318.25;4946824;28;7267;-55
2023/04/13 00:10:59;;;;;;;;;;;;;;;26.87;39.58;93317.69;4944263;28;7311;-55
2023/04/13 00:13:46;;;;;;;;;;;;;;;26.84;39.86;93312.53;4956265;28;9051;-55
2023/04/13 00:16:31;;;;;;;;;;;;;;;26.84;39.38;93312.53;4944818;28;7684;-55
2023/04/13 00:19:08;;;;;;;;;;;;;;;26.85;39.68;93319.53;4947504;28;7353;-55
2023/04/13 00:21:40;;;;;;;;;;;;;;;26.80;39.86;93309.38;4959452;28;7022;-55
2023/04/13 00:24:07;;;;;;;;;;;;;;;26.86;40.04;93309.97;4949458;28;7111;-56
2023/04/13 00:26:32;;;;;;;;;;;;;;;26.84;39.76;93307.00;4946400;28;7046;-55
2023/04/13 00:29:14;;;;;;;;;;;;;;;26.85;39.83;93311.25;4955280;28;7364;-55
2023/04/13 00:31:58;;;;;;;;;;;;;;;26.86;39.37;93312.75;4952290;28;7051;-55
2023/04/13 00:34:41;;;;;;;;;;;;;;;26.85;39.76;93314.75;4938327;28;7852;-55
2023/04/13 00:37:10;;;;;;;;;;;;;;;26.86;40.01;93299.66;4956065;28;7012;-55
2023/04/13 00:39:39;;;;;;;;;;;;;;;26.86;39.50;93299.66;4950314;28;9073;-55
2023/04/13 00:42:08;;;;;;;;;;;;;;;26.86;39.86;93302.41;4948987;28;7438;-55
2023/04/13 00:44:39;;;;;;;;;;;;;;;26.86;39.43;93296.19;4963004;28;9055;-55
2023/04/13 00:47:16;;;;;;;;;;;;;;;26.86;39.62;93290.66;4989386;28;7290;-55
2023/04/13 00:49:50;;;;;;;;;;;;;;;26.86;39.97;93282.38;4989719;28;7070;-55
2023/04/13 00:52:20;;;;;;;;;;;;;;;26.85;39.86;93289.19;4986830;28;7553;-55
2023/04/13 00:55:05;;;;;;;;;;;;;;;26.86;39.76;93290.66;4979186;28;8998;-55
2023/04/13 00:57:42;;;;;;;;;;;;;;;26.86;39.76;93276.88;5012142;28;8828;-55
2023/04/13 01:00:16;;;;;;;;;;;;;;;26.86;39.82;93282.38;4986976;28;7045;-55
2023/04/13 01:02:43;;;;;;;;;;;;;;;26.82;39.48;93271.69;5007152;28;9380;-55
2023/04/13 01:05:14;;;;;;;;;;;;;;;26.84;39.99;93282.91;4995994;28;7045;-55
2023/04/13 01:08:27;;;;;;;;;;;;;;;26.84;39.68;93284.94;5011760;28;8591;-55
2023/04/13 01:11:26;;;;;;;;;;;;;;;26.86;39.58;93283.09;4995401;28;7501;-55
2023/04/13 01:14:32;;;;;;;;;;;;;;;26.84;39.40;93276.66;4992118;28;7532;-55
2023/04/13 01:17:22;;;;;;;;;;;;;;;26.83;39.60;93280.72;5001594;28;7341;-55
2023/04/13 01:20:14;;;;;;;;;;;;;;;26.83;39.80;93283.47;4988436;28;8947;-55
2023/04/13 01:23:14;;;;;;;;;;;;;;;26.82;39.85;93276.47;5005152;28;7280;-55
2023/04/13 01:26:05;;;;;;;;;;;;;;;26.82;39.58;93282.72;5018558;28;7324;-55
2023/04/13 01:28:48;;;;;;;;;;;;;;;26.81;39.65;93280.53;4995813;28;7227;-55
2023/04/13 01:31:17;;;;;;;;;;;;;;;26.82;40.23;93279.97;5003426;28;7065;-55
2023/04/13 01:34:18;;;;;;;;;;;;;;;26.83;39.61;93277.94;4987602;28;9122;-55
2023/04/13 01:36:57;;;;;;;;;;;;;;;26.81;39.71;93280.53;4958644;28;8621;-55
2023/04/13 01:39:30;;;;;;;;;;;;;;;26.79;39.56;93277.56;4973765;28;7035;-55
2023/04/13 01:42:03;;;;;;;;;;;;;;;26.79;40.00;93280.31;4960801;28;7208;-55
2023/04/13 01:44:39;;;;;;;;;;;;;;;26.80;39.77;93290.06;4940484;28;9446;-55
2023/04/13 01:47:19;;;;;;;;;;;;;;;26.79;39.14;93289.34;4974233;28;7119;-55
2023/04/13 01:49:54;;;;;;;;;;;;;;;26.79;40.05;93302.41;4975747;28;7235;-55
2023/04/13 01:52:33;;;;;;;;;;;;;;;26.80;39.94;93304.59;4950431;28;7342;-55
2023/04/13 01:55:04;;;;;;;;;;;;;;;26.80;39.20;93301.09;4953778;28;9371;-55
2023/04/13 01:58:00;;;;;;;;;;;;;;;26.80;39.32;93301.09;4954056;28;8273;-55
2023/04/13 02:00:42;;;;;;;;;;;;;;;26.79;39.53;93305.16;4933411;29;8946;-55
2023/04/13 02:03:16;;;;;;;;;;;;;;;26.77;39.76;93304.97;4934672;28;7030;-55
2023/04/13 02:05:42;;;;;;;;;;;;;;;26.78;39.58;93298.16;4939697;28;9061;-55
2023/04/13 02:08:09;;;;;;;;;;;;;;;26.78;39.86;93300.91;4931116;28;8800;-55
2023/04/13 02:10:36;;;;;;;;;;;;;;;26.76;39.87;93300.72;4932451;28;7165;-55
2023/04/13 02:13:03;;;;;;;;;;;;;;;26.75;39.65;93302.72;4916195;29;7087;-55
2023/04/13 02:15:34;;;;;;;;;;;;;;;26.78;39.82;93300.91;4933869;29;9199;-55
2023/04/13 02:18:05;;;;;;;;;;;;;;;26.77;39.68;93304.97;4924788;28;7040;-55
2023/04/13 02:20:45;;;;;;;;;;;;;;;26.77;40.06;93307.72;4935379;28;9382;-55
2023/04/13 02:23:23;;;;;;;;;;;;;;;26.76;39.75;93315.25;4936301;28;7222;-55
2023/04/13 02:26:01;;;;;;;;;;;;;;;26.75;39.44;93308.25;4934392;29;7465;-55
2023/04/13 02:28:29;;;;;;;;;;;;;;;26.75;39.67;93302.72;4925510;29;9639;-55
2023/04/13 02:30:58;;;;;;;;;;;;;;;26.75;39.73;93302.00;4928899;29;7030;-55
2023/04/13 02:33:55;;;;;;;;;;;;;;;26.77;39.80;93302.22;4934208;29;8766;-55
2023/04/13 02:36:47;;;;;;;;;;;;;;;26.76;39.54;93292.44;4956252;28;7260;-55
2023/04/13 02:39:29;;;;;;;;;;;;;;;26.75;39.68;93293.75;4989519;28;7496;-55
2023/04/13 02:42:29;;;;;;;;;;;;;;;26.75;39.75;93291.69;5004820;28;7030;-55
2023/04/13 02:44:57;;;;;;;;;;;;;;;26.75;39.48;93288.22;4946794;28;8484;-55
2023/04/13 02:47:39;;;;;;;;;;;;;;;26.75;39.32;93279.94;4955309;28;9045;-55
2023/04/13 02:50:05;;;;;;;;;;;;;;;26.75;39.76;93290.97;4954186;28;7215;-55
2023/04/13 02:52:45;;;;;;;;;;;;;;;26.74;39.60;93293.00;4968606;28;9105;-55
2023/04/13 02:55:32;;;;;;;;;;;;;;;26.74;39.69;93281.22;4950336;28;9232;-55
2023/04/13 02:58:18;;;;;;;;;;;;;;;26.74;39.93;93283.97;4971262;28;7033;-55
2023/04/13 03:00:47;;;;;;;;;;;;;;;26.72;39.76;93286.50;4971838;28;7607;-55
2023/04/13 03:03:19;;;;;;;;;;;;;;;26.74;40.11;93281.22;4955609;28;7076;-55
2023/04/13 03:05:49;;;;;;;;;;;;;;;26.72;39.59;93284.50;4972024;28;9449;-55
2023/04/13 03:08:16;;;;;;;;;;;;;;;26.71;39.92;93277.50;4971225;28;7915;-55
2023/04/13 03:10:45;;;;;;;;;;;;;;;26.72;39.43;93281.00;4975643;28;9021;-55
2023/04/13 03:13:20;;;;;;;;;;;;;;;26.70;40.26;93283.56;4938070;28;6994;-55
2023/04/13 03:15:46;;;;;;;;;;;;;;;26.71;39.63;93287.78;4915793;28;7356;-55
2023/04/13 03:18:15;;;;;;;;;;;;;;;26.71;39.30;93288.53;4932411;28;9163;-55
2023/04/13 03:20:44;;;;;;;;;;;;;;;26.72;39.35;93286.50;4964287;28;7103;-55
2023/04/13 03:23:13;;;;;;;;;;;;;;;26.72;39.56;93292.78;4991438;28;7303;-55
2023/04/13 03:25:43;;;;;;;;;;;;;;;26.73;40.15;93288.03;5017152;28;7159;-55
2023/04/13 03:28:11;;;;;;;;;;;;;;;26.72;39.66;93292.03;5000094;28;9139;-55
2023/04/13 03:30:42;;;;;;;;;;;;;;;26.71;40.09;93290.53;4990639;28;7252;-55
2023/04/13 03:33:11;;;;;;;;;;;;;;;26.72;40.26;93298.28;5020183;28;8704;-55
2023/04/13 03:35:52;;;;;;;;;;;;;;;26.71;39.63;93294.03;5014108;28;7035;-55
2023/04/13 03:38:38;;;;;;;;;;;;;;;26.70;39.70;93287.06;4989213;28;9290;-55
2023/04/13 03:41:06;;;;;;;;;;;;;;;26.68;39.56;93275.09;4984524;28;7029;-55
2023/04/13 03:43:33;;;;;;;;;;;;;;;26.70;40.02;93289.06;4996391;28;7282;-55
2023/04/13 03:46:09;;;;;;;;;;;;;;;26.69;39.76;93287.59;5017151;28;8889;-55
2023/04/13 03:48:45;;;;;;;;;;;;;;;26.69;39.56;93287.59;5000624;28;9376;-55
2023/04/13 03:51:18;;;;;;;;;;;;;;;26.69;39.80;93293.09;5025758;28;7318;-55
2023/04/13 03:53:46;;;;;;;;;;;;;;;26.68;39.76;93295.16;4994437;28;8728;-55
2023/04/13 03:56:12;;;;;;;;;;;;;;;26.70;40.13;93294.59;4997791;28;7436;-55
2023/04/13 03:58:40;;;;;;;;;;;;;;;26.70;39.35;93305.63;4983919;28;8938;-55
2023/04/13 04:01:09;;;;;;;;;;;;;;;26.69;39.59;93304.88;5004640;28;7022;-55
2023/04/13 04:03:48;;;;;;;;;;;;;;;26.67;39.58;93292.91;4994927;28;7250;-55
2023/04/13 04:06:26;;;;;;;;;;;;;;;26.68;39.64;93294.41;4995364;28;7099;-55
2023/04/13 04:09:14;;;;;;;;;;;;;;;26.66;39.74;93294.97;5000586;28;9422;-55
2023/04/13 04:12:39;;;;;;;;;;;;;;;26.70;39.60;93302.88;4979668;28;8640;-55
2023/04/13 04:15:06;;;;;;;;;;;;;;;26.71;39.35;93301.56;4992105;28;7054;-55
2023/04/13 04:17:36;;;;;;;;;;;;;;;26.73;40.17;93304.59;4994031;28;9193;-55
2023/04/13 04:20:10;;;;;;;;;;;;;;;26.77;39.88;93310.47;4983755;28;7292;-55
2023/04/13 04:22:43;;;;;;;;;;;;;;;26.74;39.40;93309.53;4995682;28;9393;-55
2023/04/13 04:25:20;;;;;;;;;;;;;;;26.77;39.69;93310.47;5002271;28;7039;-55
2023/04/13 04:28:03;;;;;;;;;;;;;;;26.78;39.65;93304.41;5003833;28;7182;-55
2023/04/13 04:30:40;;;;;;;;;;;;;;;26.78;39.20;93306.44;4996060;28;7263;-55
2023/04/13 04:33:37;;;;;;;;;;;;;;;26.80;39.24;93314.91;5010989;28;7302;-55
2023/04/13 04:36:50;;;;;;;;;;;;;;;26.81;39.81;93316.38;5008598;28;7304;-54
2023/04/13 04:39:25;;;;;;;;;;;;;;;26.79;39.47;93313.44;4973555;28;9060;-54
2023/04/13 04:41:54;;;;;;;;;;;;;;;26.80;39.57;93309.38;4971297;28;7347;-55
2023/04/13 04:44:30;;;;;;;;;;;;;;;26.78;39.10;93322.97;4957074;28;7199;-55
2023/04/13 04:47:40;;;;;;;;;;;;;;;26.78;39.51;93320.22;4974048;28;9074;-55
2023/04/13 04:50:16;;;;;;;;;;;;;;;26.79;39.62;93316.94;4954870;28;9311;-55
2023/04/13 04:53:03;;;;;;;;;;;;;;;26.76;39.63;93323.53;4938278;28;7227;-55
2023/04/13 04:55:39;;;;;;;;;;;;;;;26.74;39.13;93333.63;4952178;28;9513;-55
2023/04/13 04:58:18;;;;;;;;;;;;;;;26.76;39.13;93325.53;4947109;28;7253;-54
2023/04/13 05:01:21;;;;;;;;;;;;;;;26.72;38.95;93336.91;4948567;28;7238;-55
2023/04/13 05:04:00;;;;;;;;;;;;;;;26.64;39.88;93329.88;4930122;29;9188;-55
2023/04/13 05:06:31;;;;;;;;;;;;;;;26.65;39.73;93331.34;4934904;29;7704;-55
2023/04/13 05:09:17;;;;;;;;;;;;;;;26.65;40.15;93336.84;4934037;28;8100;-55
2023/04/13 05:11:59;;;;;;;;;;;;;;;26.62;40.20;93349.00;4917347;28;7225;-55
2023/04/13 05:14:47;;;;;;;;;;;;;;;26.59;40.10;93339.03;4934631;29;7012;-55
2023/04/13 05:17:19;;;;;;;;;;;;;;;26.58;40.06;93343.78;4964980;28;8985;-55
2023/04/13 05:19:46;;;;;;;;;;;;;;;26.59;40.56;93352.81;4971936;28;9393;-55
2023/04/13 05:22:14;;;;;;;;;;;;;;;26.56;39.85;93351.88;4972954;28;7280;-54
2023/04/13 05:24:40;;;;;;;;;;;;;;;26.60;40.39;93351.56;4948379;28;7853;-55
2023/04/13 05:27:08;;;;;;;;;;;;;;;26.60;39.58;93357.06;4966126;28;8997;-55
2023/04/13 05:29:35;;;;;;;;;;;;;;;26.61;39.66;93355.78;4969571;28;7269;-55
2023/04/13 05:32:01;;;;;;;;;;;;;;;26.59;39.67;93356.31;4967208;28;9102;-55
2023/04/13 05:34:32;;;;;;;;;;;;;;;26.55;39.49;93357.94;4958209;28;7069;-55
2023/04/13 05:37:10;;;;;;;;;;;;;;;26.52;39.71;93362.53;4967246;28;8771;-55
2023/04/13 05:39:42;;;;;;;;;;;;;;;26.58;39.39;93362.34;5006271;28;9630;-55
2023/04/13 05:42:23;;;;;;;;;;;;;;;26.61;39.17;93358.53;5005743;28;9371;-55
2023/04/13 05:45:02;;;;;;;;;;;;;;;26.62;39.13;93354.50;4993636;28;7231;-55
2023/04/13 05:47:40;;;;;;;;;;;;;;;26.62;38.87;93360.03;5015265;28;7232;-55
2023/04/13 05:50:19;;;;;;;;;;;;;;;26.59;38.87;93366.59;4979962;28;7059;-55
2023/04/13 05:53:01;;;;;;;;;;;;;;;26.59;39.08;93372.13;5004030;28;7037;-55
2023/04/13 05:55:48;;;;;;;;;;;;;;;26.55;39.10;93364.22;5000782;28;7057;-55
2023/04/13 05:58:20;;;;;;;;;;;;;;;26.59;39.34;93372.13;5001906;28;9402;-55
2023/04/13 06:00:48;;;;;;;;;;;;;;;26.59;39.40;93369.38;4997923;28;9053;-55
2023/04/13 06:03:19;;;;;;;;;;;;;;;26.58;39.17;93368.63;4994287;28;7235;-55
2023/04/13 06:06:25;;;;;;;;;;;;;;;26.58;39.37;93371.38;5009219;28;8950;-55
2023/04/13 06:08:51;;;;;;;;;;;;;;;26.57;38.88;93377.44;4984629;28;7496;-55
2023/04/13 06:11:23;;;;;;;;;;;;;;;26.57;39.37;93383.69;4997939;28;8355;-55
2023/04/13 06:13:51;;;;;;;;;;;;;;;26.58;38.88;93378.91;5011740;28;7230;-55
2023/04/13 06:16:20;;;;;;;;;;;;;;;26.56;38.68;93379.47;5001364;28;7152;-55
2023/04/13 06:18:47;;;;;;;;;;;;;;;26.55;39.48;93369.72;5015232;28;7050;-55
2023/04/13 06:21:13;;;;;;;;;;;;;;;26.58;39.46;93365.13;4991551;28;7290;-55
2023/04/13 06:23:39;;;;;;;;;;;;;;;26.60;39.07;93368.09;4996045;28;9699;-55
2023/04/13 06:26:54;;;;;;;;;;;;;;;26.61;39.23;93359.28;4973109;28;9581;-55
2023/04/13 06:29:57;;;;;;;;;;;;;;;26.63;38.96;93353.22;4985754;28;7341;-55
2023/04/13 06:32:35;;;;;;;;;;;;;;;26.62;38.90;93354.50;4944852;28;7429;-55
2023/04/13 06:35:22;;;;;;;;;;;;;;;26.64;39.57;93351.94;4967088;28;7642;-55
2023/04/13 06:37:48;;;;;;;;;;;;;;;26.63;39.42;93356.72;4946803;28;9386;-55
2023/04/13 06:40:17;;;;;;;;;;;;;;;26.64;38.85;93363.69;4960852;28;9401;-55
2023/04/13 06:42:44;;;;;;;;;;;;;;;26.64;39.17;93358.16;4950101;28;7890;-54
2023/04/13 06:45:11;;;;;;;;;;;;;;;26.62;38.70;93365.53;4962111;28;7792;-54
2023/04/13 06:47:44;;;;;;;;;;;;;;;26.58;39.48;93360.34;4969783;28;8659;-55
2023/04/13 06:50:37;;;;;;;;;;;;;;;26.57;39.04;93371.94;4949839;28;7268;-55
2023/04/13 06:53:37;;;;;;;;;;;;;;;26.60;38.65;93363.31;4970383;28;8458;-55
2023/04/13 06:56:11;;;;;;;;;;;;;;;26.58;38.52;93357.59;4947806;29;9384;-55
2023/04/13 06:58:37;;;;;;;;;;;;;;;26.55;38.89;93357.94;4952598;29;7196;-55
2023/04/13 07:04:59;;;;;;;;;;;;;;;26.55;39.20;93361.44;4946000;29;7460;-55
2023/04/13 07:07:30;;;;;;;;;;;;;;;26.54;40.14;93359.22;4924000;29;8999;-55
2023/04/13 07:10:10;;;;;;;;;;;;;;;26.55;39.54;93360.69;4932605;29;8994;-55
2023/04/13 07:12:51;;;;;;;;;;;;;;;26.57;39.55;93358.13;4954464;28;7077;-55
2023/04/13 07:15:50;;;;;;;;;;;;;;;26.57;39.91;93358.13;4950342;29;7055;-55
2023/04/13 07:18:18;;;;;;;;;;;;;;;26.57;40.10;93358.88;4943678;29;9090;-55
2023/04/13 07:20:46;;;;;;;;;;;;;;;26.59;40.20;93364.59;4937054;29;8729;-55
2023/04/13 07:23:16;;;;;;;;;;;;;;;26.59;39.93;93356.31;4939452;29;7028;-55
2023/04/13 07:25:43;;;;;;;;;;;;;;;26.59;39.87;93352.81;4942444;28;8457;-55
2023/04/13 07:28:26;;;;;;;;;;;;;;;26.60;39.81;93343.28;4945021;28;9125;-55
2023/04/13 07:30:54;;;;;;;;;;;;;;;26.58;40.35;93343.78;4923732;29;7143;-55
2023/04/13 07:33:23;;;;;;;;;;;;;;;26.60;40.33;93348.78;5001874;28;9328;-55
2023/04/13 07:35:54;;;;;;;;;;;;;;;26.59;39.99;93344.53;4982106;28;7066;-55
2023/04/13 07:38:26;;;;;;;;;;;;;;;26.59;39.87;93344.53;4987193;28;9899;-55
2023/04/13 07:40:53;;;;;;;;;;;;;;;26.61;39.69;93344.75;4985541;28;7246;-54
2023/04/13 07:43:21;;;;;;;;;;;;;;;26.61;40.24;93353.00;4987136;28;7184;-55
2023/04/13 07:45:47;;;;;;;;;;;;;;;26.63;39.65;93358.72;4995632;28;9428;-55
2023/04/13 07:48:13;;;;;;;;;;;;;;;26.62;40.23;93357.25;5011019;28;9372;-55
2023/04/13 07:50:43;;;;;;;;;;;;;;;26.66;40.22;93349.38;4985678;28;7024;-55
2023/04/13 07:53:10;;;;;;;;;;;;;;;26.67;40.27;93350.84;5000986;28;7281;-55
2023/04/13 07:55:36;;;;;;;;;;;;;;;26.67;39.86;93353.59;4987727;28;9318;-55
2023/04/13 07:58:02;;;;;;;;;;;;;;;26.67;40.65;93359.09;5000260;28;9049;-55
2023/04/13 08:00:30;;;;;;;;;;;;;;;26.68;40.10;93358.59;4998748;28;7534;-55
2023/04/13 08:02:57;;;;;;;;;;;;;;;26.67;40.03;93361.88;4996171;28;8824;-55
2023/04/13 08:05:23;;;;;;;;;;;;;;;26.67;40.40;93365.38;4989147;28;7044;-54
2023/04/13 08:07:54;;;;;;;;;;;;;;;26.68;40.07;93358.59;4981663;28;7163;-55
2023/04/13 08:10:22;;;;;;;;;;;;;;;26.69;39.89;93364.81;4991883;28;6993;-55
2023/04/13 08:12:48;;;;;;;;;;;;;;;26.65;39.89;93367.94;4983662;28;9093;-55
2023/04/13 08:15:14;;;;;;;;;;;;;;;26.67;39.96;93357.09;5005554;28;8745;-55
2023/04/13 08:17:58;;;;;;;;;;;;;;;26.66;40.17;93360.41;4985665;28;9062;-55
2023/04/13 08:20:44;;;;;;;;;;;;;;;26.67;40.01;93361.88;4988549;28;7057;-55
2023/04/13 08:23:19;;;;;;;;;;;;;;;26.68;40.05;93360.59;4988376;28;8773;-55
2023/04/13 08:25:46;;;;;;;;;;;;;;;26.69;40.13;93360.06;4980059;28;9049;-55
2023/04/13 08:28:13;;;;;;;;;;;;;;;26.70;40.21;93355.28;4988502;28;7366;-55
2023/04/13 08:31:14;;;;;;;;;;;;;;;26.70;39.84;93352.53;4984830;28;7029;-55
2023/04/13 08:33:45;;;;;;;;;;;;;;;26.69;39.43;93349.03;4971480;28;8169;-55
2023/04/13 08:36:16;;;;;;;;;;;;;;;26.70;40.06;93350.50;4983121;28;7024;-55
2023/04/13 08:39:15;;;;;;;;;;;;;;;26.70;40.18;93350.50;4984598;28;7135;-55
2023/04/13 08:42:35;;;;;;;;;;;;;;;26.70;39.74;93349.75;4911299;29;7105;-55
2023/04/13 08:45:10;;;;;;;;;;;;;;;26.70;40.42;93358.03;4912824;29;9007;-55
2023/04/13 08:47:40;;;;;;;;;;;;;;;26.68;40.50;93355.84;4903402;29;7218;-55
2023/04/13 08:50:08;;;;;;;;;;;;;;;26.65;39.96;93359.66;4917939;29;7326;-55
2023/04/13 08:52:43;;;;;;;;;;;;;;;26.64;40.02;93360.94;4917996;29;7011;-55
2023/04/13 08:55:28;;;;;;;;;;;;;;;26.67;39.77;93368.13;4903591;29;7147;-55
2023/04/13 08:58:05;;;;;;;;;;;;;;;26.67;40.05;93356.34;4914997;29;7137;-55
2023/04/13 09:01:12;;;;;;;;;;;;;;;26.68;39.63;93366.13;4897197;29;7320;-55
2023/04/13 09:03:53;;;;;;;;;;;;;;;26.67;40.25;93357.09;4878458;29;7192;-55
2023/04/13 09:06:34;;;;;;;;;;;;;;;26.66;39.86;93352.13;4858209;29;7258;-55
2023/04/13 09:09:09;;;;;;;;;;;;;;;26.68;40.02;93361.34;4859692;29;9146;-55
2023/04/13 09:11:41;;;;;;;;;;;;;;;26.68;40.65;93357.84;4871160;29;9051;-56
2023/04/13 09:14:09;;;;;;;;;;;;;;;26.67;40.65;93362.63;4865250;29;9086;-55
2023/04/13 09:16:41;;;;;;;;;;;;;;;26.70;39.88;93355.28;4883072;29;9091;-55
2023/04/13 09:19:12;;;;;;;;;;;;;;;26.68;40.09;93357.84;4909369;29;7046;-55
2023/04/13 09:21:41;;;;;;;;;;;;;;;26.67;40.64;93357.09;4903858;29;7331;-55
2023/04/13 09:24:16;;;;;;;;;;;;;;;26.67;40.26;93357.09;4924121;29;7271;-55
2023/04/13 09:26:46;;;;;;;;;;;;;;;26.67;40.43;93362.63;4907341;29;7243;-55
2023/04/13 09:29:21;;;;;;;;;;;;;;;26.68;40.11;93363.34;4910358;29;7044;-55
2023/04/13 09:31:52;;;;;;;;;;;;;;;26.65;39.94;93364.44;4906098;29;9071;-55
2023/04/13 09:34:27;;;;;;;;;;;;;;;26.68;40.50;93358.59;4907817;29;7242;-55
2023/04/13 09:36:53;;;;;;;;;;;;;;;26.66;40.01;93360.41;4927269;28;7252;-55
2023/04/13 09:39:26;;;;;;;;;;;;;;;26.66;40.16;93361.16;4984366;28;7400;-55
2023/04/13 09:41:53;;;;;;;;;;;;;;;26.68;40.35;93355.09;4987915;28;7235;-55
2023/04/13 09:44:23;;;;;;;;;;;;;;;26.66;40.65;93361.16;4986034;28;9343;-55
2023/04/13 09:47:00;;;;;;;;;;;;;;;26.67;40.56;93359.09;5006091;28;7050;-55
2023/04/13 09:49:42;;;;;;;;;;;;;;;26.67;40.67;93356.34;4997880;28;7486;-56
2023/04/13 09:52:24;;;;;;;;;;;;;;;26.67;40.03;93357.09;4989014;28;7132;-56
2023/04/13 09:54:50;;;;;;;;;;;;;;;26.69;40.42;93360.06;4980909;28;6994;-55
2023/04/13 09:57:31;;;;;;;;;;;;;;;26.69;40.22;93353.78;4989851;28;7060;-55
2023/04/13 10:00:20;;;;;;;;;;;;;;;26.69;40.63;93337.97;4982888;28;7085;-55
2023/04/13 10:03:00;;;;;;;;;;;;;;;26.69;40.33;93342.75;4983059;28;9432;-55
2023/04/13 10:05:36;;;;;;;;;;;;;;;26.71;40.27;93342.94;4998555;28;9207;-55
2023/04/13 10:08:17;;;;;;;;;;;;;;;26.70;40.22;93339.47;4985774;28;7947;-55
2023/04/13 10:11:03;;;;;;;;;;;;;;;26.76;40.05;93334.56;4987712;28;7052;-55
2023/04/13 10:14:11;;;;;;;;;;;;;;;26.77;39.59;93329.78;5014961;28;7013;-55
2023/04/13 10:16:52;;;;;;;;;;;;;;;26.78;39.54;93326.47;4973536;28;8046;-56
2023/04/13 10:19:28;;;;;;;;;;;;;;;26.82;39.23;93326.13;4987207;28;7377;-55
2023/04/13 10:21:58;;;;;;;;;;;;;;;26.82;39.73;93321.34;4974966;28;7170;-55
2023/04/13 10:24:29;;;;;;;;;;;;;;;26.84;39.86;93326.31;4983587;28;7050;-56
2023/04/13 10:27:31;;;;;;;;;;;;;;;26.87;39.81;93319.72;4983522;28;9363;-56
2023/04/13 10:30:17;;;;;;;;;;;;;;;26.83;40.09;93313.81;4961400;28;7484;-55
2023/04/13 10:32:46;;;;;;;;;;;;;;;26.79;40.06;93310.66;4982086;28;7324;-55
2023/04/13 10:35:53;;;;;;;;;;;;;;;26.79;40.33;93307.91;4982473;28;7651;-56
2023/04/13 10:39:03;;;;;;;;;;;;;;;26.77;40.75;93302.91;4938308;28;8793;-56
2023/04/13 10:41:56;;;;;;;;;;;;;;;26.78;40.12;93311.94;4943134;28;7561;-55
2023/04/13 10:44:46;;;;;;;;;;;;;;;26.78;40.53;93300.91;4945296;28;8496;-56
2023/04/13 10:47:35;;;;;;;;;;;;;;;26.74;40.36;93290.25;4932089;28;9167;-56
2023/04/13 10:54:03;;;;;;;;;;;;;;;26.73;40.69;93293.53;4967770;28;7204;-56
2023/04/13 10:57:00;;;;;;;;;;;;;;;26.73;40.62;93288.75;4954813;28;9357;-57
2023/04/13 10:59:55;;;;;;;;;;;;;;;26.76;40.57;93292.44;4931047;29;9562;-56
2023/04/13 11:02:58;;;;;;;;;;;;;;;26.79;40.60;93291.34;4909056;29;8675;-57
2023/04/13 11:05:57;;;;;;;;;;;;;;;26.78;40.56;93287.84;4911915;29;8690;-56
2023/04/13 11:09:03;;;;;;;;;;;;;;;26.80;40.57;93287.31;5127508;27;7075;-54
2023/04/13 11:12:02;;;;;;;;;;;;;;;26.85;40.38;93284.41;5106515;28;7300;-55
2023/04/13 11:14:44;;;;;;;;;;;;;;;26.89;40.42;93279.25;5028092;28;9279;-54
2023/04/13 11:17:17;;;;;;;;;;;;;;;26.89;40.04;93281.28;5025421;28;7371;-54
2023/04/13 11:19:51;;;;;;;;;;;;;;;26.96;40.29;93279.84;5037705;28;7359;-54
2023/04/13 11:22:28;;;;;;;;;;;;;;;26.96;40.19;93277.81;5024824;28;7116;-54
2023/04/13 11:25:08;;;;;;;;;;;;;;;27.00;39.85;93278.19;5019496;28;7565;-54
2023/04/13 11:27:37;;;;;;;;;;;;;;;27.02;39.97;93264.59;5042272;28;7308;-54
2023/04/13 11:30:12;;;;;;;;;;;;;;;27.01;39.82;93259.63;5023130;28;9297;-54
2023/04/13 11:32:42;;;;;;;;;;;;;;;27.02;39.45;93248.03;5024022;28;7016;-54
2023/04/13 11:35:19;;;;;;;;;;;;;;;27.02;39.29;93261.09;5020337;28;7318;-54
2023/04/13 11:37:51;;;;;;;;;;;;;;;27.01;39.17;93245.81;5042448;28;7297;-54
2023/04/13 11:40:24;;;;;;;;;;;;;;;27.02;38.73;93247.28;5023198;28;7415;-54
2023/04/13 11:42:54;;;;;;;;;;;;;;;27.01;39.41;93254.84;5023453;28;8724;-54
2023/04/13 11:45:24;;;;;;;;;;;;;;;27.04;39.59;93258.50;5039361;28;7098;-54
2023/04/13 11:47:52;;;;;;;;;;;;;;;27.04;39.44;93250.97;5023857;28;7232;-54
2023/04/13 11:50:20;;;;;;;;;;;;;;;27.05;39.11;93241.44;5064028;28;7384;-54
2023/04/13 11:52:50;;;;;;;;;;;;;;;27.06;38.68;93242.88;5096846;28;7026;-55
2023/04/13 11:55:20;;;;;;;;;;;;;;;27.06;39.02;93245.66;5093512;28;9152;-55
2023/04/13 11:57:47;;;;;;;;;;;;;;;27.09;39.20;93255.59;5113087;28;6995;-54
2023/04/13 12:00:17;;;;;;;;;;;;;;;27.10;39.00;93250.81;5102334;28;7261;-54
2023/04/13 12:02:45;;;;;;;;;;;;;;;27.09;38.93;93252.84;5108382;28;7212;-54
2023/04/13 12:05:31;;;;;;;;;;;;;;;27.10;38.97;93242.53;5101057;28;8950;-54
2023/04/13 12:08:01;;;;;;;;;;;;;;;27.08;39.36;93240.31;5104176;28;9391;-54
2023/04/13 12:10:30;;;;;;;;;;;;;;;27.11;38.92;93233.72;5103912;28;7054;-54
2023/04/13 12:13:14;;;;;;;;;;;;;;;27.07;39.10;93235.34;5099851;28;7277;-54
2023/04/13 12:15:46;;;;;;;;;;;;;;;27.05;38.86;93238.66;5101650;28;7272;-54
2023/04/13 12:18:13;;;;;;;;;;;;;;;27.05;38.65;93235.91;5114620;28;9479;-54
2023/04/13 12:20:45;;;;;;;;;;;;;;;27.06;39.29;93229.09;5082616;28;6870;-54
2023/04/13 12:23:23;;;;;;;;;;;;;;;27.06;39.26;93234.59;5099643;28;7256;-54
2023/04/13 12:26:09;;;;;;;;;;;;;;;27.08;38.72;93234.78;5089197;28;7316;-54
2023/04/13 12:28:36;;;;;;;;;;;;;;;27.09;39.19;93238.28;5080539;28;9108;-54
2023/04/13 12:31:06;;;;;;;;;;;;;;;27.09;39.13;93239.03;5098331;28;9116;-54
2023/04/13 12:33:32;;;;;;;;;;;;;;;27.10;38.85;93237.03;5087926;28;8958;-54
2023/04/13 12:35:59;;;;;;;;;;;;;;;27.08;39.31;93254.13;5105288;28;6936;-54
2023/04/13 12:38:26;;;;;;;;;;;;;;;27.07;39.39;93240.88;5078521;28;6860;-54
2023/04/13 12:41:00;;;;;;;;;;;;;;;27.07;38.85;93249.91;5098611;28;7084;-54
2023/04/13 12:43:27;;;;;;;;;;;;;;;27.05;39.11;93244.19;5079744;28;7034;-55
2023/04/13 12:45:55;;;;;;;;;;;;;;;27.04;39.52;93248.22;5105610;28;7451;-54
2023/04/13 12:48:34;;;;;;;;;;;;;;;27.06;38.84;93247.66;5100871;28;7041;-54
2023/04/13 12:51:00;;;;;;;;;;;;;;;27.05;39.39;93254.47;5088560;28;7207;-54
2023/04/13 12:53:43;;;;;;;;;;;;;;;27.07;39.24;93269.22;5094515;28;9119;-54
2023/04/13 12:57:03;;;;;;;;;;;;;;;27.10;39.25;93276.38;5092743;28;7123;-54
2023/04/13 12:59:29;;;;;;;;;;;;;;;27.09;39.55;93282.47;5092928;28;7335;-54
2023/04/13 13:02:07;;;;;;;;;;;;;;;27.08;39.65;93284.47;5092365;28;6991;-54
2023/04/13 13:05:05;;;;;;;;;;;;;;;27.11;39.45;93282.66;5085391;28;7096;-54
2023/04/13 13:07:31;;;;;;;;;;;;;;;27.09;39.40;93272.16;5027762;28;7225;-54
2023/04/13 13:10:06;;;;;;;;;;;;;;;27.09;39.37;93274.91;5043671;28;7396;-54
2023/04/13 13:12:51;;;;;;;;;;;;;;;27.10;39.09;93284.66;5031995;28;7022;-54
2023/04/13 13:15:19;;;;;;;;;;;;;;;27.08;39.49;93290.00;5031776;28;7348;-54
2023/04/13 13:17:47;;;;;;;;;;;;;;;27.08;38.98;93281.72;5047794;28;9022;-54
2023/04/13 13:20:15;;;;;;;;;;;;;;;27.11;39.23;93288.91;5047224;28;7047;-54
2023/04/13 13:22:55;;;;;;;;;;;;;;;27.12;39.03;93284.13;5014735;28;8958;-54
2023/04/13 13:25:51;;;;;;;;;;;;;;;27.16;39.43;93292.78;5029850;28;7023;-54
2023/04/13 13:28:18;;;;;;;;;;;;;;;27.15;39.44;93299.59;4961449;28;7989;-54
2023/04/13 13:30:44;;;;;;;;;;;;;;;27.15;39.52;93300.31;4945931;28;7125;-54
2023/04/13 13:33:40;;;;;;;;;;;;;;;27.15;39.65;93296.81;4971512;28;6965;-54
2023/04/13 13:36:17;;;;;;;;;;;;;;;27.14;39.05;93285.06;4911437;29;7357;-54
2023/04/13 13:38:54;;;;;;;;;;;;;;;27.16;39.39;93285.25;4908393;29;7049;-54
2023/04/13 13:41:21;;;;;;;;;;;;;;;27.17;39.31;93297.75;4913830;29;7939;-54
2023/04/13 13:43:49;;;;;;;;;;;;;;;27.16;39.16;93299.06;4912148;29;8753;-54
2023/04/13 13:46:33;;;;;;;;;;;;;;;27.16;40.18;93295.56;4909105;29;6996;-56
2023/04/13 13:49:05;;;;;;;;;;;;;;;27.16;39.73;93301.81;4898254;29;7367;-56
2023/04/13 13:51:35;;;;;;;;;;;;;;;27.14;39.49;93292.59;4913257;29;7219;-56
2023/04/13 13:54:49;;;;;;;;;;;;;;;27.15;39.54;93292.03;4907395;29;7208;-56
2023/04/13 13:57:32;;;;;;;;;;;;;;;27.15;39.43;93305.84;4842518;29;8994;-56
2023/04/13 13:59:59;;;;;;;;;;;;;;;27.12;39.61;93295.88;4856987;29;9233;-55